sensor_id;sensor_type;location;lat;lon;timestamp;P1;durP1;ratioP1;P2;durP2;ratioP2
36259;SDS011;22296;50.824;5.644;2023-03-31T00:02:12;1.65;;;0.88;;
36259;SDS011;22296;50.824;5.644;2023-03-31T00:04:40;2.30;;;0.77;;
36259;SDS011;22296;50.824;5.644;2023-03-31T00:07:12;3.85;;;0.68;;
36259;SDS011;22296;50.824;5.644;2023-03-31T00:09:41;2.45;;;0.88;;
36259;SDS011;22296;50.824;5.644;2023-03-31T00:12:12;2.08;;;0.70;;
36259;SDS011;22296;50.824;5.644;2023-03-31T00:14:40;1.92;;;0.70;;
36259;SDS011;22296;50.824;5.644;2023-03-31T00:17:08;1.85;;;0.82;;
36259;SDS011;22296;50.824;5.644;2023-03-31T00:19:36;3.03;;;0.73;;
36259;SDS011;22296;50.824;5.644;2023-03-31T00:22:03;2.22;;;0.75;;
36259;SDS011;22296;50.824;5.644;2023-03-31T00:24:31;2.90;;;0.80;;
36259;SDS011;22296;50.824;5.644;2023-03-31T00:27:01;2.70;;;0.57;;
36259;SDS011;22296;50.824;5.644;2023-03-31T00:29:29;2.08;;;0.73;;
36259;SDS011;22296;50.824;5.644;2023-03-31T00:31:57;3.70;;;0.80;;
36259;SDS011;22296;50.824;5.644;2023-03-31T00:34:25;2.08;;;0.52;;
36259;SDS011;22296;50.824;5.644;2023-03-31T00:36:52;2.72;;;1.00;;
36259;SDS011;22296;50.824;5.644;2023-03-31T00:39:22;3.42;;;0.70;;
36259;SDS011;22296;50.824;5.644;2023-03-31T00:41:57;4.05;;;1.02;;
36259;SDS011;22296;50.824;5.644;2023-03-31T00:44:24;3.08;;;0.88;;
36259;SDS011;22296;50.824;5.644;2023-03-31T00:49:20;3.75;;;0.70;;
36259;SDS011;22296;50.824;5.644;2023-03-31T00:51:53;2.63;;;0.80;;
36259;SDS011;22296;50.824;5.644;2023-03-31T00:54:25;2.03;;;0.70;;
36259;SDS011;22296;50.824;5.644;2023-03-31T00:56:53;3.35;;;0.80;;
36259;SDS011;22296;50.824;5.644;2023-03-31T00:59:25;4.20;;;0.98;;
36259;SDS011;22296;50.824;5.644;2023-03-31T01:01:54;2.97;;;0.73;;
36259;SDS011;22296;50.824;5.644;2023-03-31T01:04:29;1.98;;;0.65;;
36259;SDS011;22296;50.824;5.644;2023-03-31T01:07:04;4.05;;;0.68;;
36259;SDS011;22296;50.824;5.644;2023-03-31T01:09:37;2.08;;;0.73;;
36259;SDS011;22296;50.824;5.644;2023-03-31T01:12:05;2.00;;;0.85;;
36259;SDS011;22296;50.824;5.644;2023-03-31T01:17:01;2.35;;;0.80;;
36259;SDS011;22296;50.824;5.644;2023-03-31T01:22:09;3.22;;;0.70;;
36259;SDS011;22296;50.824;5.644;2023-03-31T01:27:36;2.47;;;0.73;;
36259;SDS011;22296;50.824;5.644;2023-03-31T01:33:03;2.72;;;0.80;;
36259;SDS011;22296;50.824;5.644;2023-03-31T01:41:38;3.63;;;0.70;;
36259;SDS011;22296;50.824;5.644;2023-03-31T01:46:57;2.30;;;0.80;;
36259;SDS011;22296;50.824;5.644;2023-03-31T01:49:34;3.38;;;0.90;;
36259;SDS011;22296;50.824;5.644;2023-03-31T01:57:19;3.17;;;0.93;;
36259;SDS011;22296;50.824;5.644;2023-03-31T02:00:00;4.05;;;1.00;;
36259;SDS011;22296;50.824;5.644;2023-03-31T02:02:47;1.65;;;0.90;;
36259;SDS011;22296;50.824;5.644;2023-03-31T02:05:19;2.35;;;1.00;;
36259;SDS011;22296;50.824;5.644;2023-03-31T02:07:52;2.72;;;0.88;;
36259;SDS011;22296;50.824;5.644;2023-03-31T02:10:24;3.25;;;1.08;;
36259;SDS011;22296;50.824;5.644;2023-03-31T02:12:57;2.30;;;1.15;;
36259;SDS011;22296;50.824;5.644;2023-03-31T02:15:30;3.88;;;0.70;;
36259;SDS011;22296;50.824;5.644;2023-03-31T02:18:05;3.53;;;0.77;;
36259;SDS011;22296;50.824;5.644;2023-03-31T02:20:39;3.20;;;0.93;;
36259;SDS011;22296;50.824;5.644;2023-03-31T02:23:09;4.50;;;1.00;;
36259;SDS011;22296;50.824;5.644;2023-03-31T02:25:41;3.28;;;0.95;;
36259;SDS011;22296;50.824;5.644;2023-03-31T02:28:17;2.40;;;0.80;;
36259;SDS011;22296;50.824;5.644;2023-03-31T02:33:33;3.17;;;0.82;;
36259;SDS011;22296;50.824;5.644;2023-03-31T02:36:03;4.22;;;0.90;;
36259;SDS011;22296;50.824;5.644;2023-03-31T02:38:32;2.28;;;0.80;;
36259;SDS011;22296;50.824;5.644;2023-03-31T02:41:03;2.67;;;0.88;;
36259;SDS011;22296;50.824;5.644;2023-03-31T02:43:31;2.60;;;1.10;;
36259;SDS011;22296;50.824;5.644;2023-03-31T02:45:58;3.60;;;0.65;;
36259;SDS011;22296;50.824;5.644;2023-03-31T02:48:26;1.77;;;0.68;;
36259;SDS011;22296;50.824;5.644;2023-03-31T02:51:07;3.03;;;0.88;;
36259;SDS011;22296;50.824;5.644;2023-03-31T02:57:18;1.55;;;0.60;;
36259;SDS011;22296;50.824;5.644;2023-03-31T03:17:06;1.38;;;0.52;;
36259;SDS011;22296;50.824;5.644;2023-03-31T03:19:35;0.90;;;0.60;;
36259;SDS011;22296;50.824;5.644;2023-03-31T03:22:02;2.80;;;1.00;;
36259;SDS011;22296;50.824;5.644;2023-03-31T03:24:29;2.45;;;0.93;;
36259;SDS011;22296;50.824;5.644;2023-03-31T03:26:59;3.72;;;1.17;;
36259;SDS011;22296;50.824;5.644;2023-03-31T03:29:26;5.63;;;2.13;;
36259;SDS011;22296;50.824;5.644;2023-03-31T03:31:53;4.40;;;2.10;;
36259;SDS011;22296;50.824;5.644;2023-03-31T03:34:20;6.10;;;2.75;;
36259;SDS011;22296;50.824;5.644;2023-03-31T03:36:47;3.53;;;2.15;;
36259;SDS011;22296;50.824;5.644;2023-03-31T03:39:14;3.92;;;2.33;;
36259;SDS011;22296;50.824;5.644;2023-03-31T03:41:41;3.53;;;1.50;;
36259;SDS011;22296;50.824;5.644;2023-03-31T03:44:07;3.50;;;1.42;;
36259;SDS011;22296;50.824;5.644;2023-03-31T03:46:34;3.40;;;1.50;;
36259;SDS011;22296;50.824;5.644;2023-03-31T03:49:01;2.90;;;1.60;;
36259;SDS011;22296;50.824;5.644;2023-03-31T03:51:27;3.15;;;1.50;;
36259;SDS011;22296;50.824;5.644;2023-03-31T03:53:54;3.63;;;1.40;;
36259;SDS011;22296;50.824;5.644;2023-03-31T03:56:21;2.10;;;1.23;;
36259;SDS011;22296;50.824;5.644;2023-03-31T03:58:48;2.53;;;1.42;;
36259;SDS011;22296;50.824;5.644;2023-03-31T04:01:14;2.90;;;1.33;;
36259;SDS011;22296;50.824;5.644;2023-03-31T04:03:42;2.55;;;1.15;;
36259;SDS011;22296;50.824;5.644;2023-03-31T04:06:09;2.85;;;1.58;;
36259;SDS011;22296;50.824;5.644;2023-03-31T04:08:35;2.33;;;1.20;;
36259;SDS011;22296;50.824;5.644;2023-03-31T04:11:02;2.60;;;1.42;;
36259;SDS011;22296;50.824;5.644;2023-03-31T04:13:29;2.75;;;1.30;;
36259;SDS011;22296;50.824;5.644;2023-03-31T04:15:56;2.38;;;1.05;;
36259;SDS011;22296;50.824;5.644;2023-03-31T04:18:22;2.78;;;1.33;;
36259;SDS011;22296;50.824;5.644;2023-03-31T04:20:50;2.90;;;1.20;;
36259;SDS011;22296;50.824;5.644;2023-03-31T04:23:30;3.00;;;1.20;;
36259;SDS011;22296;50.824;5.644;2023-03-31T04:26:03;1.52;;;0.93;;
36259;SDS011;22296;50.824;5.644;2023-03-31T04:28:34;3.28;;;1.30;;
36259;SDS011;22296;50.824;5.644;2023-03-31T04:31:02;2.47;;;1.10;;
36259;SDS011;22296;50.824;5.644;2023-03-31T04:33:31;2.90;;;1.30;;
36259;SDS011;22296;50.824;5.644;2023-03-31T04:35:59;2.38;;;1.10;;
36259;SDS011;22296;50.824;5.644;2023-03-31T04:38:32;3.63;;;1.75;;
36259;SDS011;22296;50.824;5.644;2023-03-31T04:40:59;2.33;;;1.15;;
36259;SDS011;22296;50.824;5.644;2023-03-31T04:43:26;2.50;;;1.10;;
36259;SDS011;22296;50.824;5.644;2023-03-31T04:45:52;2.17;;;1.00;;
36259;SDS011;22296;50.824;5.644;2023-03-31T04:48:19;2.47;;;1.20;;
36259;SDS011;22296;50.824;5.644;2023-03-31T04:50:46;2.63;;;1.13;;
36259;SDS011;22296;50.824;5.644;2023-03-31T04:53:13;3.15;;;1.25;;
36259;SDS011;22296;50.824;5.644;2023-03-31T04:55:40;2.75;;;0.85;;
36259;SDS011;22296;50.824;5.644;2023-03-31T04:58:07;3.17;;;1.45;;
36259;SDS011;22296;50.824;5.644;2023-03-31T05:00:34;4.25;;;1.35;;
36259;SDS011;22296;50.824;5.644;2023-03-31T05:03:00;2.25;;;1.10;;
36259;SDS011;22296;50.824;5.644;2023-03-31T05:05:27;2.42;;;1.08;;
36259;SDS011;22296;50.824;5.644;2023-03-31T05:07:54;2.63;;;0.90;;
36259;SDS011;22296;50.824;5.644;2023-03-31T05:10:21;3.13;;;1.08;;
36259;SDS011;22296;50.824;5.644;2023-03-31T05:12:48;2.22;;;1.42;;
36259;SDS011;22296;50.824;5.644;2023-03-31T05:15:15;2.50;;;1.10;;
36259;SDS011;22296;50.824;5.644;2023-03-31T05:17:42;2.90;;;1.42;;
36259;SDS011;22296;50.824;5.644;2023-03-31T05:20:09;2.22;;;1.10;;
36259;SDS011;22296;50.824;5.644;2023-03-31T05:22:39;1.90;;;1.00;;
36259;SDS011;22296;50.824;5.644;2023-03-31T05:25:09;1.85;;;0.85;;
36259;SDS011;22296;50.824;5.644;2023-03-31T05:27:37;2.38;;;0.90;;
36259;SDS011;22296;50.824;5.644;2023-03-31T05:30:04;2.13;;;0.98;;
36259;SDS011;22296;50.824;5.644;2023-03-31T05:32:31;2.25;;;1.23;;
36259;SDS011;22296;50.824;5.644;2023-03-31T05:34:58;3.28;;;1.30;;
36259;SDS011;22296;50.824;5.644;2023-03-31T05:37:25;1.83;;;1.00;;
36259;SDS011;22296;50.824;5.644;2023-03-31T05:39:52;2.08;;;1.00;;
36259;SDS011;22296;50.824;5.644;2023-03-31T05:42:19;2.63;;;1.20;;
36259;SDS011;22296;50.824;5.644;2023-03-31T05:44:46;2.22;;;1.00;;
36259;SDS011;22296;50.824;5.644;2023-03-31T05:47:13;1.52;;;0.80;;
36259;SDS011;22296;50.824;5.644;2023-03-31T05:49:40;2.38;;;1.08;;
36259;SDS011;22296;50.824;5.644;2023-03-31T05:52:07;2.00;;;1.08;;
36259;SDS011;22296;50.824;5.644;2023-03-31T05:54:35;2.78;;;1.20;;
36259;SDS011;22296;50.824;5.644;2023-03-31T05:57:01;3.35;;;1.10;;
36259;SDS011;22296;50.824;5.644;2023-03-31T05:59:29;1.90;;;1.05;;
36259;SDS011;22296;50.824;5.644;2023-03-31T06:01:56;2.58;;;1.23;;
36259;SDS011;22296;50.824;5.644;2023-03-31T06:04:23;2.50;;;1.02;;
36259;SDS011;22296;50.824;5.644;2023-03-31T06:06:50;3.17;;;1.10;;
36259;SDS011;22296;50.824;5.644;2023-03-31T06:09:17;1.90;;;1.10;;
36259;SDS011;22296;50.824;5.644;2023-03-31T06:11:43;3.08;;;1.23;;
36259;SDS011;22296;50.824;5.644;2023-03-31T06:14:11;2.95;;;1.50;;
36259;SDS011;22296;50.824;5.644;2023-03-31T06:16:38;2.67;;;1.30;;
36259;SDS011;22296;50.824;5.644;2023-03-31T06:19:04;1.95;;;1.27;;
36259;SDS011;22296;50.824;5.644;2023-03-31T06:21:31;1.90;;;1.00;;
36259;SDS011;22296;50.824;5.644;2023-03-31T06:23:59;1.85;;;0.90;;
36259;SDS011;22296;50.824;5.644;2023-03-31T06:26:26;1.40;;;1.10;;
36259;SDS011;22296;50.824;5.644;2023-03-31T06:28:53;2.05;;;1.20;;
36259;SDS011;22296;50.824;5.644;2023-03-31T06:31:21;1.80;;;1.13;;
36259;SDS011;22296;50.824;5.644;2023-03-31T06:33:50;2.22;;;1.10;;
36259;SDS011;22296;50.824;5.644;2023-03-31T06:36:18;1.90;;;1.05;;
36259;SDS011;22296;50.824;5.644;2023-03-31T06:38:47;2.00;;;1.00;;
36259;SDS011;22296;50.824;5.644;2023-03-31T06:41:15;2.95;;;1.20;;
36259;SDS011;22296;50.824;5.644;2023-03-31T06:43:43;2.75;;;1.15;;
36259;SDS011;22296;50.824;5.644;2023-03-31T06:46:10;3.05;;;1.40;;
36259;SDS011;22296;50.824;5.644;2023-03-31T06:48:38;2.47;;;1.40;;
36259;SDS011;22296;50.824;5.644;2023-03-31T06:51:05;2.30;;;1.20;;
36259;SDS011;22296;50.824;5.644;2023-03-31T06:53:33;2.37;;;1.50;;
36259;SDS011;22296;50.824;5.644;2023-03-31T06:56:01;3.45;;;1.75;;
36259;SDS011;22296;50.824;5.644;2023-03-31T06:58:28;2.17;;;1.50;;
36259;SDS011;22296;50.824;5.644;2023-03-31T07:00:57;2.95;;;1.52;;
36259;SDS011;22296;50.824;5.644;2023-03-31T07:03:24;2.95;;;1.55;;
36259;SDS011;22296;50.824;5.644;2023-03-31T07:05:52;3.35;;;1.58;;
36259;SDS011;22296;50.824;5.644;2023-03-31T07:08:20;2.75;;;1.77;;
36259;SDS011;22296;50.824;5.644;2023-03-31T07:10:53;4.13;;;1.92;;
36259;SDS011;22296;50.824;5.644;2023-03-31T07:13:23;4.10;;;1.80;;
36259;SDS011;22296;50.824;5.644;2023-03-31T07:15:50;2.47;;;1.88;;
36259;SDS011;22296;50.824;5.644;2023-03-31T07:18:18;2.90;;;1.92;;
36259;SDS011;22296;50.824;5.644;2023-03-31T07:20:48;3.17;;;2.10;;
36259;SDS011;22296;50.824;5.644;2023-03-31T07:23:16;4.18;;;2.30;;
36259;SDS011;22296;50.824;5.644;2023-03-31T07:25:43;4.07;;;2.17;;
36259;SDS011;22296;50.824;5.644;2023-03-31T07:28:10;3.90;;;2.15;;
36259;SDS011;22296;50.824;5.644;2023-03-31T07:30:37;3.40;;;2.17;;
36259;SDS011;22296;50.824;5.644;2023-03-31T07:33:05;3.63;;;2.55;;
36259;SDS011;22296;50.824;5.644;2023-03-31T07:35:36;4.28;;;2.17;;
36259;SDS011;22296;50.824;5.644;2023-03-31T07:38:04;3.70;;;2.22;;
36259;SDS011;22296;50.824;5.644;2023-03-31T07:40:31;5.45;;;2.60;;
36259;SDS011;22296;50.824;5.644;2023-03-31T07:42:57;4.10;;;2.33;;
36259;SDS011;22296;50.824;5.644;2023-03-31T07:45:25;4.82;;;2.72;;
36259;SDS011;22296;50.824;5.644;2023-03-31T07:47:52;11.30;;;2.72;;
36259;SDS011;22296;50.824;5.644;2023-03-31T07:50:20;6.03;;;3.25;;
36259;SDS011;22296;50.824;5.644;2023-03-31T07:52:50;5.45;;;3.50;;
36259;SDS011;22296;50.824;5.644;2023-03-31T07:55:17;7.53;;;3.80;;
36259;SDS011;22296;50.824;5.644;2023-03-31T07:57:45;5.22;;;3.70;;
36259;SDS011;22296;50.824;5.644;2023-03-31T08:00:14;7.43;;;3.60;;
36259;SDS011;22296;50.824;5.644;2023-03-31T08:02:41;8.57;;;4.30;;
36259;SDS011;22296;50.824;5.644;2023-03-31T08:05:09;6.47;;;4.32;;
36259;SDS011;22296;50.824;5.644;2023-03-31T08:07:38;7.22;;;4.28;;
36259;SDS011;22296;50.824;5.644;2023-03-31T08:12:35;8.57;;;4.47;;
36259;SDS011;22296;50.824;5.644;2023-03-31T08:15:02;8.48;;;4.65;;
36259;SDS011;22296;50.824;5.644;2023-03-31T08:17:29;10.15;;;4.68;;
36259;SDS011;22296;50.824;5.644;2023-03-31T08:19:55;7.22;;;4.88;;
36259;SDS011;22296;50.824;5.644;2023-03-31T08:22:25;7.28;;;4.63;;
36259;SDS011;22296;50.824;5.644;2023-03-31T08:24:52;10.07;;;5.60;;
36259;SDS011;22296;50.824;5.644;2023-03-31T08:27:19;7.25;;;4.93;;
36259;SDS011;22296;50.824;5.644;2023-03-31T08:29:46;8.32;;;4.85;;
36259;SDS011;22296;50.824;5.644;2023-03-31T08:32:13;8.77;;;5.13;;
36259;SDS011;22296;50.824;5.644;2023-03-31T08:34:40;11.50;;;4.93;;
36259;SDS011;22296;50.824;5.644;2023-03-31T08:37:08;7.25;;;4.75;;
36259;SDS011;22296;50.824;5.644;2023-03-31T08:39:35;7.88;;;4.78;;
36259;SDS011;22296;50.824;5.644;2023-03-31T08:42:15;8.95;;;4.57;;
36259;SDS011;22296;50.824;5.644;2023-03-31T08:45:03;7.88;;;4.82;;
36259;SDS011;22296;50.824;5.644;2023-03-31T08:47:47;8.07;;;4.75;;
36259;SDS011;22296;50.824;5.644;2023-03-31T08:50:20;8.13;;;4.72;;
36259;SDS011;22296;50.824;5.644;2023-03-31T08:53:07;8.60;;;4.50;;
36259;SDS011;22296;50.824;5.644;2023-03-31T08:55:51;8.25;;;5.43;;
36259;SDS011;22296;50.824;5.644;2023-03-31T09:18:06;6.95;;;4.20;;
36259;SDS011;22296;50.824;5.644;2023-03-31T09:20:42;6.40;;;4.30;;
36259;SDS011;22296;50.824;5.644;2023-03-31T09:23:33;10.65;;;5.13;;
36259;SDS011;22296;50.824;5.644;2023-03-31T09:26:04;7.45;;;4.43;;
36259;SDS011;22296;50.824;5.644;2023-03-31T09:28:38;8.63;;;4.47;;
36259;SDS011;22296;50.824;5.644;2023-03-31T09:31:12;7.80;;;4.25;;
36259;SDS011;22296;50.824;5.644;2023-03-31T09:33:43;9.07;;;4.32;;
36259;SDS011;22296;50.824;5.644;2023-03-31T09:36:15;8.13;;;4.47;;
36259;SDS011;22296;50.824;5.644;2023-03-31T09:38:44;10.25;;;5.10;;
36259;SDS011;22296;50.824;5.644;2023-03-31T09:41:13;7.90;;;4.60;;
36259;SDS011;22296;50.824;5.644;2023-03-31T09:43:42;8.90;;;4.97;;
36259;SDS011;22296;50.824;5.644;2023-03-31T09:51:40;7.82;;;4.30;;
36259;SDS011;22296;50.824;5.644;2023-03-31T09:54:24;7.38;;;4.53;;
36259;SDS011;22296;50.824;5.644;2023-03-31T09:56:56;7.85;;;4.05;;
36259;SDS011;22296;50.824;5.644;2023-03-31T09:59:30;5.97;;;4.25;;
36259;SDS011;22296;50.824;5.644;2023-03-31T10:02:02;6.93;;;4.07;;
36259;SDS011;22296;50.824;5.644;2023-03-31T10:04:44;8.27;;;4.43;;
36259;SDS011;22296;50.824;5.644;2023-03-31T10:07:12;6.70;;;4.47;;
36259;SDS011;22296;50.824;5.644;2023-03-31T10:09:39;6.93;;;4.30;;
36259;SDS011;22296;50.824;5.644;2023-03-31T10:12:07;5.78;;;3.83;;
36259;SDS011;22296;50.824;5.644;2023-03-31T10:14:44;5.88;;;4.20;;
36259;SDS011;22296;50.824;5.644;2023-03-31T10:17:14;7.78;;;4.43;;
36259;SDS011;22296;50.824;5.644;2023-03-31T10:19:46;9.35;;;4.43;;
36259;SDS011;22296;50.824;5.644;2023-03-31T10:22:15;7.38;;;4.45;;
36259;SDS011;22296;50.824;5.644;2023-03-31T10:24:49;7.65;;;4.38;;
36259;SDS011;22296;50.824;5.644;2023-03-31T10:27:24;9.13;;;4.88;;
36259;SDS011;22296;50.824;5.644;2023-03-31T10:29:54;8.63;;;4.55;;
36259;SDS011;22296;50.824;5.644;2023-03-31T10:35:07;7.07;;;4.38;;
36259;SDS011;22296;50.824;5.644;2023-03-31T10:37:50;8.70;;;4.30;;
36259;SDS011;22296;50.824;5.644;2023-03-31T10:40:21;6.90;;;4.78;;
36259;SDS011;22296;50.824;5.644;2023-03-31T10:42:58;7.22;;;4.47;;
36259;SDS011;22296;50.824;5.644;2023-03-31T10:45:29;6.60;;;4.22;;
36259;SDS011;22296;50.824;5.644;2023-03-31T10:48:04;7.60;;;5.45;;
36259;SDS011;22296;50.824;5.644;2023-03-31T10:50:42;8.10;;;4.70;;
36259;SDS011;22296;50.824;5.644;2023-03-31T10:53:13;7.45;;;4.80;;
36259;SDS011;22296;50.824;5.644;2023-03-31T10:55:47;7.15;;;4.28;;
36259;SDS011;22296;50.824;5.644;2023-03-31T11:11:29;9.05;;;4.72;;
36259;SDS011;22296;50.824;5.644;2023-03-31T11:14:07;8.48;;;4.78;;
36259;SDS011;22296;50.824;5.644;2023-03-31T11:24:35;9.60;;;4.97;;
36259;SDS011;22296;50.824;5.644;2023-03-31T11:35:36;7.53;;;5.10;;
36259;SDS011;22296;50.824;5.644;2023-03-31T11:41:02;9.32;;;5.55;;
36259;SDS011;22296;50.824;5.644;2023-03-31T11:46:12;7.20;;;4.68;;
36259;SDS011;22296;50.824;5.644;2023-03-31T11:48:49;9.43;;;5.35;;
36259;SDS011;22296;50.824;5.644;2023-03-31T11:51:38;6.95;;;4.63;;
36259;SDS011;22296;50.824;5.644;2023-03-31T11:54:38;10.77;;;5.47;;
36259;SDS011;22296;50.824;5.644;2023-03-31T12:00:10;7.95;;;5.10;;
36259;SDS011;22296;50.824;5.644;2023-03-31T12:03:01;7.82;;;4.60;;
36259;SDS011;22296;50.824;5.644;2023-03-31T12:05:38;8.80;;;4.60;;
36259;SDS011;22296;50.824;5.644;2023-03-31T12:11:31;5.95;;;4.32;;
36259;SDS011;22296;50.824;5.644;2023-03-31T12:16:53;7.68;;;4.30;;
36259;SDS011;22296;50.824;5.644;2023-03-31T12:19:33;9.02;;;4.15;;
36259;SDS011;22296;50.824;5.644;2023-03-31T12:22:41;8.40;;;4.40;;
36259;SDS011;22296;50.824;5.644;2023-03-31T12:25:12;8.77;;;4.40;;
36259;SDS011;22296;50.824;5.644;2023-03-31T12:27:41;7.75;;;4.00;;
36259;SDS011;22296;50.824;5.644;2023-03-31T12:30:14;6.72;;;4.20;;
36259;SDS011;22296;50.824;5.644;2023-03-31T12:32:58;6.97;;;4.20;;
36259;SDS011;22296;50.824;5.644;2023-03-31T12:38:41;7.65;;;4.13;;
36259;SDS011;22296;50.824;5.644;2023-03-31T12:46:44;7.45;;;3.97;;
36259;SDS011;22296;50.824;5.644;2023-03-31T12:57:50;6.03;;;4.15;;
36259;SDS011;22296;50.824;5.644;2023-03-31T13:00:22;7.72;;;4.22;;
36259;SDS011;22296;50.824;5.644;2023-03-31T13:03:34;7.35;;;3.72;;
36259;SDS011;22296;50.824;5.644;2023-03-31T13:06:02;11.68;;;5.03;;
36259;SDS011;22296;50.824;5.644;2023-03-31T13:11:21;11.40;;;4.50;;
36259;SDS011;22296;50.824;5.644;2023-03-31T13:14:14;11.15;;;4.22;;
36259;SDS011;22296;50.824;5.644;2023-03-31T13:16:45;9.55;;;4.32;;
36259;SDS011;22296;50.824;5.644;2023-03-31T13:19:26;9.33;;;4.10;;
36259;SDS011;22296;50.824;5.644;2023-03-31T13:28:39;7.78;;;3.75;;
36259;SDS011;22296;50.824;5.644;2023-03-31T13:31:09;7.82;;;4.18;;
36259;SDS011;22296;50.824;5.644;2023-03-31T14:06:53;6.45;;;3.22;;
36259;SDS011;22296;50.824;5.644;2023-03-31T14:09:33;7.07;;;3.22;;
36259;SDS011;22296;50.824;5.644;2023-03-31T14:12:17;5.50;;;2.73;;
36259;SDS011;22296;50.824;5.644;2023-03-31T14:15:05;5.78;;;3.03;;
36259;SDS011;22296;50.824;5.644;2023-03-31T14:17:34;5.35;;;3.17;;
36259;SDS011;22296;50.824;5.644;2023-03-31T14:23:14;6.00;;;3.03;;
36259;SDS011;22296;50.824;5.644;2023-03-31T14:28:32;7.55;;;3.08;;
36259;SDS011;22296;50.824;5.644;2023-03-31T14:33:53;4.82;;;3.05;;
36259;SDS011;22296;50.824;5.644;2023-03-31T14:39:15;6.50;;;3.17;;
36259;SDS011;22296;50.824;5.644;2023-03-31T14:41:51;6.05;;;3.38;;
36259;SDS011;22296;50.824;5.644;2023-03-31T14:44:19;6.53;;;3.10;;
36259;SDS011;22296;50.824;5.644;2023-03-31T14:46:47;5.60;;;3.10;;
36259;SDS011;22296;50.824;5.644;2023-03-31T14:49:27;5.93;;;2.95;;
36259;SDS011;22296;50.824;5.644;2023-03-31T14:51:58;5.70;;;2.88;;
36259;SDS011;22296;50.824;5.644;2023-03-31T14:54:27;5.15;;;3.03;;
36259;SDS011;22296;50.824;5.644;2023-03-31T14:56:59;5.43;;;2.88;;
36259;SDS011;22296;50.824;5.644;2023-03-31T14:59:30;4.97;;;3.00;;
36259;SDS011;22296;50.824;5.644;2023-03-31T15:02:00;5.25;;;2.97;;
36259;SDS011;22296;50.824;5.644;2023-03-31T15:07:07;3.47;;;2.33;;
36259;SDS011;22296;50.824;5.644;2023-03-31T15:09:34;4.07;;;2.65;;
36259;SDS011;22296;50.824;5.644;2023-03-31T15:12:02;6.13;;;3.03;;
36259;SDS011;22296;50.824;5.644;2023-03-31T15:14:39;5.45;;;2.67;;
36259;SDS011;22296;50.824;5.644;2023-03-31T15:17:21;5.13;;;2.65;;
36259;SDS011;22296;50.824;5.644;2023-03-31T15:19:52;4.28;;;2.60;;
36259;SDS011;22296;50.824;5.644;2023-03-31T15:22:21;6.53;;;2.70;;
36259;SDS011;22296;50.824;5.644;2023-03-31T15:24:50;3.78;;;2.65;;
36259;SDS011;22296;50.824;5.644;2023-03-31T15:29:59;5.15;;;2.65;;
36259;SDS011;22296;50.824;5.644;2023-03-31T15:32:33;4.43;;;2.45;;
36259;SDS011;22296;50.824;5.644;2023-03-31T15:35:02;3.63;;;2.40;;
36259;SDS011;22296;50.824;5.644;2023-03-31T15:37:51;4.00;;;2.57;;
36259;SDS011;22296;50.824;5.644;2023-03-31T15:40:31;3.80;;;2.55;;
36259;SDS011;22296;50.824;5.644;2023-03-31T15:45:51;3.78;;;2.35;;
36259;SDS011;22296;50.824;5.644;2023-03-31T15:48:24;3.60;;;2.42;;
36259;SDS011;22296;50.824;5.644;2023-03-31T15:51:05;4.60;;;2.67;;
36259;SDS011;22296;50.824;5.644;2023-03-31T15:53:43;4.05;;;2.50;;
36259;SDS011;22296;50.824;5.644;2023-03-31T15:56:29;4.47;;;2.50;;
36259;SDS011;22296;50.824;5.644;2023-03-31T15:59:22;8.50;;;3.30;;
36259;SDS011;22296;50.824;5.644;2023-03-31T16:02:11;6.30;;;2.80;;
36259;SDS011;22296;50.824;5.644;2023-03-31T16:04:40;3.97;;;2.55;;
36259;SDS011;22296;50.824;5.644;2023-03-31T16:07:08;5.85;;;2.72;;
36259;SDS011;22296;50.824;5.644;2023-03-31T16:15:06;6.32;;;3.47;;
36259;SDS011;22296;50.824;5.644;2023-03-31T16:17:49;5.50;;;3.10;;
36259;SDS011;22296;50.824;5.644;2023-03-31T16:20:29;8.02;;;3.35;;
36259;SDS011;22296;50.824;5.644;2023-03-31T16:23:02;6.63;;;3.63;;
36259;SDS011;22296;50.824;5.644;2023-03-31T16:25:39;7.00;;;4.28;;
36259;SDS011;22296;50.824;5.644;2023-03-31T16:28:07;6.70;;;3.65;;
36259;SDS011;22296;50.824;5.644;2023-03-31T16:30:42;6.60;;;3.97;;
36259;SDS011;22296;50.824;5.644;2023-03-31T16:33:12;6.57;;;3.73;;
36259;SDS011;22296;50.824;5.644;2023-03-31T16:35:42;6.65;;;3.95;;
36259;SDS011;22296;50.824;5.644;2023-03-31T16:38:18;7.25;;;3.92;;
36259;SDS011;22296;50.824;5.644;2023-03-31T16:40:47;5.57;;;3.45;;
36259;SDS011;22296;50.824;5.644;2023-03-31T16:45:45;6.97;;;3.63;;
36259;SDS011;22296;50.824;5.644;2023-03-31T16:48:14;6.75;;;3.75;;
36259;SDS011;22296;50.824;5.644;2023-03-31T16:50:45;7.80;;;3.90;;
36259;SDS011;22296;50.824;5.644;2023-03-31T16:53:13;8.50;;;4.40;;
36259;SDS011;22296;50.824;5.644;2023-03-31T16:55:43;7.00;;;3.38;;
36259;SDS011;22296;50.824;5.644;2023-03-31T16:58:10;7.57;;;4.13;;
36259;SDS011;22296;50.824;5.644;2023-03-31T17:00:36;6.65;;;3.85;;
36259;SDS011;22296;50.824;5.644;2023-03-31T17:03:06;8.98;;;3.97;;
36259;SDS011;22296;50.824;5.644;2023-03-31T17:05:39;5.70;;;3.70;;
36259;SDS011;22296;50.824;5.644;2023-03-31T17:08:10;6.95;;;3.80;;
36259;SDS011;22296;50.824;5.644;2023-03-31T17:10:38;6.55;;;3.95;;
36259;SDS011;22296;50.824;5.644;2023-03-31T17:13:06;5.93;;;3.78;;
36259;SDS011;22296;50.824;5.644;2023-03-31T17:15:34;6.65;;;3.80;;
36259;SDS011;22296;50.824;5.644;2023-03-31T17:18:02;6.72;;;4.05;;
36259;SDS011;22296;50.824;5.644;2023-03-31T17:20:30;5.88;;;3.97;;
36259;SDS011;22296;50.824;5.644;2023-03-31T17:22:58;7.15;;;4.00;;
36259;SDS011;22296;50.824;5.644;2023-03-31T17:25:25;7.07;;;4.10;;
36259;SDS011;22296;50.824;5.644;2023-03-31T17:27:52;6.18;;;3.88;;
36259;SDS011;22296;50.824;5.644;2023-03-31T17:30:21;7.45;;;4.28;;
36259;SDS011;22296;50.824;5.644;2023-03-31T17:32:48;7.18;;;4.00;;
36259;SDS011;22296;50.824;5.644;2023-03-31T17:35:18;6.57;;;4.15;;
36259;SDS011;22296;50.824;5.644;2023-03-31T17:40:15;5.97;;;3.85;;
36259;SDS011;22296;50.824;5.644;2023-03-31T17:42:42;7.10;;;3.75;;
36259;SDS011;22296;50.824;5.644;2023-03-31T17:45:10;5.15;;;3.33;;
36259;SDS011;22296;50.824;5.644;2023-03-31T17:47:38;7.15;;;3.90;;
36259;SDS011;22296;50.824;5.644;2023-03-31T17:50:05;6.05;;;3.63;;
36259;SDS011;22296;50.824;5.644;2023-03-31T17:52:34;6.57;;;3.72;;
36259;SDS011;22296;50.824;5.644;2023-03-31T17:55:02;5.97;;;3.67;;
36259;SDS011;22296;50.824;5.644;2023-03-31T17:57:29;5.68;;;3.70;;
36259;SDS011;22296;50.824;5.644;2023-03-31T17:59:57;5.45;;;3.45;;
36259;SDS011;22296;50.824;5.644;2023-03-31T18:02:24;5.25;;;3.25;;
36259;SDS011;22296;50.824;5.644;2023-03-31T18:04:51;6.28;;;3.20;;
36259;SDS011;22296;50.824;5.644;2023-03-31T18:07:18;6.32;;;3.25;;
36259;SDS011;22296;50.824;5.644;2023-03-31T18:09:48;4.68;;;2.88;;
36259;SDS011;22296;50.824;5.644;2023-03-31T18:12:15;4.68;;;3.22;;
36259;SDS011;22296;50.824;5.644;2023-03-31T18:14:41;6.07;;;3.28;;
36259;SDS011;22296;50.824;5.644;2023-03-31T18:17:08;5.07;;;3.20;;
36259;SDS011;22296;50.824;5.644;2023-03-31T18:19:40;6.38;;;3.38;;
36259;SDS011;22296;50.824;5.644;2023-03-31T18:22:08;5.70;;;3.00;;
36259;SDS011;22296;50.824;5.644;2023-03-31T18:24:35;4.10;;;2.67;;
36259;SDS011;22296;50.824;5.644;2023-03-31T18:27:03;4.07;;;2.40;;
36259;SDS011;22296;50.824;5.644;2023-03-31T18:29:31;5.43;;;2.90;;
36259;SDS011;22296;50.824;5.644;2023-03-31T18:31:58;4.72;;;2.53;;
36259;SDS011;22296;50.824;5.644;2023-03-31T18:34:25;4.90;;;2.85;;
36259;SDS011;22296;50.824;5.644;2023-03-31T18:36:53;4.18;;;2.58;;
36259;SDS011;22296;50.824;5.644;2023-03-31T18:39:20;5.78;;;2.70;;
36259;SDS011;22296;50.824;5.644;2023-03-31T18:41:47;4.13;;;2.40;;
36259;SDS011;22296;50.824;5.644;2023-03-31T18:44:14;5.05;;;2.72;;
36259;SDS011;22296;50.824;5.644;2023-03-31T18:46:43;4.22;;;2.78;;